Terminal Aerodrome Forecast
Issued by NWS

Home | Current Version | Previous Version | Text Only | Print | Product List | Glossary On
Versions: 1 2 3 4 5 6 7 8 9 10 11 12 13 14 15 16
000
FTUS46 KMTR 182300
TAFSTS
TAF
KSTS 182338Z 1900/1924 21008KT P6SM SCT040 BKN050
     FM190200 23005KT P6SM SCT030
     FM190400 VRB03KT P6SM SCT020
     FM191000 00000KT P6SM SCT007
      TEMPO 1910/1914 BKN007
     FM191800 19007KT P6SM FEW011=

USA.gov is the U.S. government's official web portal to all federal, state and local government web resources and services.